sensor_id;sensor_type;location;lat;lon;timestamp;pressure;altitude;pressure_sealevel;temperature;humidity
51289;BME280;37372;52.294;5.152;2023-03-19T00:00:03;101022.59;;;10.13;84.15
51289;BME280;37372;52.294;5.152;2023-03-19T00:02:28;101021.97;;;10.11;84.00
51289;BME280;37372;52.294;5.152;2023-03-19T00:04:57;101019.19;;;10.18;83.92
51289;BME280;37372;52.294;5.152;2023-03-19T00:07:22;101016.28;;;10.13;83.98
51289;BME280;37372;52.294;5.152;2023-03-19T00:09:55;101017.16;;;10.07;84.15
51289;BME280;37372;52.294;5.152;2023-03-19T00:12:21;101020.31;;;10.03;84.01
51289;BME280;37372;52.294;5.152;2023-03-19T00:15:00;101021.41;;;10.02;84.15
51289;BME280;37372;52.294;5.152;2023-03-19T00:17:28;101023.53;;;10.00;84.15
51289;BME280;37372;52.294;5.152;2023-03-19T00:20:00;101026.66;;;10.04;83.45
51289;BME280;37372;52.294;5.152;2023-03-19T00:22:26;101026.22;;;10.07;83.98
51289;BME280;37372;52.294;5.152;2023-03-19T00:24:52;101018.84;;;10.08;83.09
51289;BME280;37372;52.294;5.152;2023-03-19T00:27:18;101035.28;;;10.08;83.22
51289;BME280;37372;52.294;5.152;2023-03-19T00:30:14;101033.19;;;10.03;83.71
51289;BME280;37372;52.294;5.152;2023-03-19T00:32:40;101023.72;;;10.06;83.07
51289;BME280;37372;52.294;5.152;2023-03-19T00:35:06;101029.19;;;10.06;83.60
51289;BME280;37372;52.294;5.152;2023-03-19T00:37:33;101032.97;;;10.04;83.54
51289;BME280;37372;52.294;5.152;2023-03-19T00:40:03;101034.56;;;10.19;82.69
51289;BME280;37372;52.294;5.152;2023-03-19T00:42:30;101038.56;;;10.16;82.16
51289;BME280;37372;52.294;5.152;2023-03-19T00:45:05;101029.97;;;10.13;83.22
51289;BME280;37372;52.294;5.152;2023-03-19T00:47:31;101042.31;;;10.22;82.67
51289;BME280;37372;52.294;5.152;2023-03-19T00:49:57;101041.31;;;10.16;82.57
51289;BME280;37372;52.294;5.152;2023-03-19T00:52:22;101037.06;;;10.20;82.43
51289;BME280;37372;52.294;5.152;2023-03-19T00:54:56;101040.88;;;10.19;82.14
51289;BME280;37372;52.294;5.152;2023-03-19T00:57:22;101044.47;;;10.20;82.50
51289;BME280;37372;52.294;5.152;2023-03-19T00:59:57;101046.13;;;10.21;82.17
51289;BME280;37372;52.294;5.152;2023-03-19T01:02:23;101043.16;;;10.22;82.50
51289;BME280;37372;52.294;5.152;2023-03-19T01:05:06;101045.06;;;10.22;82.51
51289;BME280;37372;52.294;5.152;2023-03-19T01:07:32;101042.78;;;10.19;82.58
51289;BME280;37372;52.294;5.152;2023-03-19T01:10:02;101043.41;;;10.21;82.10
51289;BME280;37372;52.294;5.152;2023-03-19T01:12:28;101044.44;;;10.26;81.89
51289;BME280;37372;52.294;5.152;2023-03-19T01:15:03;101046.56;;;10.24;81.98
51289;BME280;37372;52.294;5.152;2023-03-19T01:17:31;101056.50;;;10.19;82.27
51289;BME280;37372;52.294;5.152;2023-03-19T01:20:05;101054.19;;;10.16;81.90
51289;BME280;37372;52.294;5.152;2023-03-19T01:22:40;101053.41;;;10.09;82.27
51289;BME280;37372;52.294;5.152;2023-03-19T01:25:07;101055.84;;;10.17;82.19
51289;BME280;37372;52.294;5.152;2023-03-19T01:27:33;101048.38;;;10.06;82.35
51289;BME280;37372;52.294;5.152;2023-03-19T01:30:11;101039.09;;;10.07;82.27
51289;BME280;37372;52.294;5.152;2023-03-19T01:32:44;101052.63;;;10.01;82.17
51289;BME280;37372;52.294;5.152;2023-03-19T01:35:11;101048.47;;;9.92;82.29
51289;BME280;37372;52.294;5.152;2023-03-19T01:37:36;101048.00;;;9.95;82.53
51289;BME280;37372;52.294;5.152;2023-03-19T01:40:13;101051.38;;;9.97;82.33
51289;BME280;37372;52.294;5.152;2023-03-19T01:45:34;101049.69;;;9.96;82.33
51289;BME280;37372;52.294;5.152;2023-03-19T01:48:05;101045.94;;;9.91;83.08
51289;BME280;37372;52.294;5.152;2023-03-19T01:50:39;101050.38;;;9.92;82.79
51289;BME280;37372;52.294;5.152;2023-03-19T01:53:07;101043.03;;;9.86;83.09
51289;BME280;37372;52.294;5.152;2023-03-19T01:55:34;101050.28;;;9.73;83.06
51289;BME280;37372;52.294;5.152;2023-03-19T01:58:06;101050.94;;;9.69;83.51
51289;BME280;37372;52.294;5.152;2023-03-19T02:00:43;101045.47;;;9.69;83.49
51289;BME280;37372;52.294;5.152;2023-03-19T02:03:09;101054.09;;;9.66;83.88
51289;BME280;37372;52.294;5.152;2023-03-19T02:05:36;101055.34;;;9.70;83.89
51289;BME280;37372;52.294;5.152;2023-03-19T02:08:11;101058.97;;;9.64;83.59
51289;BME280;37372;52.294;5.152;2023-03-19T02:10:51;101061.75;;;9.57;83.92
51289;BME280;37372;52.294;5.152;2023-03-19T02:13:20;101060.28;;;9.55;83.94
51289;BME280;37372;52.294;5.152;2023-03-19T02:15:45;101055.44;;;9.57;84.33
51289;BME280;37372;52.294;5.152;2023-03-19T02:18:37;101055.66;;;9.55;84.76
51289;BME280;37372;52.294;5.152;2023-03-19T02:21:08;101055.38;;;9.63;84.46
51289;BME280;37372;52.294;5.152;2023-03-19T02:23:43;101053.94;;;9.61;84.16
51289;BME280;37372;52.294;5.152;2023-03-19T02:26:13;101055.88;;;9.54;84.63
51289;BME280;37372;52.294;5.152;2023-03-19T02:28:45;101060.50;;;9.53;84.58
51289;BME280;37372;52.294;5.152;2023-03-19T02:31:13;101063.88;;;9.55;84.50
51289;BME280;37372;52.294;5.152;2023-03-19T02:33:39;101065.97;;;9.60;83.94
51289;BME280;37372;52.294;5.152;2023-03-19T02:36:08;101060.88;;;9.63;84.41
51289;BME280;37372;52.294;5.152;2023-03-19T02:38:35;101069.88;;;9.70;83.92
51289;BME280;37372;52.294;5.152;2023-03-19T02:41:06;101068.25;;;9.63;83.74
51289;BME280;37372;52.294;5.152;2023-03-19T02:43:34;101064.22;;;9.65;84.02
51289;BME280;37372;52.294;5.152;2023-03-19T02:46:03;101072.88;;;9.62;83.88
51289;BME280;37372;52.294;5.152;2023-03-19T02:48:29;101079.84;;;9.58;83.68
51289;BME280;37372;52.294;5.152;2023-03-19T02:50:56;101080.31;;;9.55;83.72
51289;BME280;37372;52.294;5.152;2023-03-19T02:53:22;101073.81;;;9.43;83.84
51289;BME280;37372;52.294;5.152;2023-03-19T02:55:48;101081.25;;;9.29;84.30
51289;BME280;37372;52.294;5.152;2023-03-19T02:58:22;101080.44;;;9.22;84.63
51289;BME280;37372;52.294;5.152;2023-03-19T03:00:49;101074.34;;;9.20;84.19
51289;BME280;37372;52.294;5.152;2023-03-19T03:03:20;101077.13;;;9.07;85.19
51289;BME280;37372;52.294;5.152;2023-03-19T03:05:49;101070.41;;;9.03;85.08
51289;BME280;37372;52.294;5.152;2023-03-19T03:08:27;101079.47;;;8.97;85.30
51289;BME280;37372;52.294;5.152;2023-03-19T03:10:52;101085.16;;;8.88;85.54
51289;BME280;37372;52.294;5.152;2023-03-19T03:13:22;101078.03;;;8.81;85.51
51289;BME280;37372;52.294;5.152;2023-03-19T03:15:47;101077.63;;;8.77;85.42
51289;BME280;37372;52.294;5.152;2023-03-19T03:18:13;101080.16;;;8.72;85.31
51289;BME280;37372;52.294;5.152;2023-03-19T03:20:39;101073.03;;;8.64;85.39
51289;BME280;37372;52.294;5.152;2023-03-19T03:23:05;101070.91;;;8.53;85.78
51289;BME280;37372;52.294;5.152;2023-03-19T03:25:31;101078.69;;;8.50;86.22
51289;BME280;37372;52.294;5.152;2023-03-19T03:27:56;101078.50;;;8.45;86.35
51289;BME280;37372;52.294;5.152;2023-03-19T03:30:29;101078.88;;;8.35;86.14
51289;BME280;37372;52.294;5.152;2023-03-19T03:32:57;101075.94;;;8.30;86.84
51289;BME280;37372;52.294;5.152;2023-03-19T03:35:33;101079.94;;;8.27;86.70
51289;BME280;37372;52.294;5.152;2023-03-19T03:37:58;101080.34;;;8.24;87.15
51289;BME280;37372;52.294;5.152;2023-03-19T03:40:42;101078.88;;;8.22;86.65
51289;BME280;37372;52.294;5.152;2023-03-19T03:43:07;101081.22;;;8.18;87.09
51289;BME280;37372;52.294;5.152;2023-03-19T03:45:44;101084.34;;;8.15;87.49
51289;BME280;37372;52.294;5.152;2023-03-19T03:48:12;101087.50;;;8.12;87.33
51289;BME280;37372;52.294;5.152;2023-03-19T03:50:38;101083.91;;;8.05;87.14
51289;BME280;37372;52.294;5.152;2023-03-19T03:53:04;101078.66;;;8.03;87.68
51289;BME280;37372;52.294;5.152;2023-03-19T03:55:37;101082.03;;;7.99;87.70
51289;BME280;37372;52.294;5.152;2023-03-19T03:58:12;101088.94;;;7.95;87.54
51289;BME280;37372;52.294;5.152;2023-03-19T04:00:40;101077.59;;;7.91;87.75
51289;BME280;37372;52.294;5.152;2023-03-19T04:03:06;101070.66;;;7.88;88.05
51289;BME280;37372;52.294;5.152;2023-03-19T04:05:44;101073.16;;;7.83;87.68
51289;BME280;37372;52.294;5.152;2023-03-19T04:08:11;101075.50;;;7.80;88.22
51289;BME280;37372;52.294;5.152;2023-03-19T04:10:40;101077.56;;;7.78;88.05
51289;BME280;37372;52.294;5.152;2023-03-19T04:13:10;101076.09;;;7.75;88.36
51289;BME280;37372;52.294;5.152;2023-03-19T04:15:37;101076.50;;;7.72;88.23
51289;BME280;37372;52.294;5.152;2023-03-19T04:18:04;101076.28;;;7.67;87.99
51289;BME280;37372;52.294;5.152;2023-03-19T04:20:39;101080.69;;;7.68;88.39
51289;BME280;37372;52.294;5.152;2023-03-19T04:23:09;101077.31;;;7.66;88.62
51289;BME280;37372;52.294;5.152;2023-03-19T04:25:39;101081.31;;;7.64;88.32
51289;BME280;37372;52.294;5.152;2023-03-19T04:28:11;101081.53;;;7.62;88.48
51289;BME280;37372;52.294;5.152;2023-03-19T04:30:43;101091.38;;;7.56;88.30
51289;BME280;37372;52.294;5.152;2023-03-19T04:33:09;101084.00;;;7.50;88.12
51289;BME280;37372;52.294;5.152;2023-03-19T04:35:41;101089.91;;;7.54;88.63
51289;BME280;37372;52.294;5.152;2023-03-19T04:38:10;101085.06;;;7.49;88.41
51289;BME280;37372;52.294;5.152;2023-03-19T04:40:46;101091.13;;;7.45;88.42
51289;BME280;37372;52.294;5.152;2023-03-19T04:43:33;101097.63;;;7.44;88.57
51289;BME280;37372;52.294;5.152;2023-03-19T04:45:58;101101.81;;;7.40;88.47
51289;BME280;37372;52.294;5.152;2023-03-19T04:48:24;101087.53;;;7.38;88.48
51289;BME280;37372;52.294;5.152;2023-03-19T04:50:50;101094.25;;;7.35;88.32
51289;BME280;37372;52.294;5.152;2023-03-19T04:53:18;101088.78;;;7.35;88.27
51289;BME280;37372;52.294;5.152;2023-03-19T04:55:45;101100.97;;;7.39;88.49
51289;BME280;37372;52.294;5.152;2023-03-19T04:58:14;101101.81;;;7.46;88.84
51289;BME280;37372;52.294;5.152;2023-03-19T05:00:48;101110.69;;;7.55;88.73
51289;BME280;37372;52.294;5.152;2023-03-19T05:03:14;101109.25;;;7.66;88.92
51289;BME280;37372;52.294;5.152;2023-03-19T05:05:56;101106.53;;;7.72;88.39
51289;BME280;37372;52.294;5.152;2023-03-19T05:08:22;101115.38;;;7.74;87.85
51289;BME280;37372;52.294;5.152;2023-03-19T05:10:55;101114.56;;;7.87;87.99
51289;BME280;37372;52.294;5.152;2023-03-19T05:13:21;101122.13;;;7.92;87.82
51289;BME280;37372;52.294;5.152;2023-03-19T05:15:54;101131.22;;;7.99;87.50
51289;BME280;37372;52.294;5.152;2023-03-19T05:18:21;101132.25;;;8.11;87.38
51289;BME280;37372;52.294;5.152;2023-03-19T05:20:58;101121.75;;;8.08;86.93
51289;BME280;37372;52.294;5.152;2023-03-19T05:23:24;101127.22;;;8.14;86.26
51289;BME280;37372;52.294;5.152;2023-03-19T05:25:52;101127.41;;;8.00;86.62
51289;BME280;37372;52.294;5.152;2023-03-19T05:28:19;101128.03;;;8.02;86.91
51289;BME280;37372;52.294;5.152;2023-03-19T05:31:04;101127.44;;;8.06;85.94
51289;BME280;37372;52.294;5.152;2023-03-19T05:33:30;101124.50;;;8.08;86.08
51289;BME280;37372;52.294;5.152;2023-03-19T05:36:03;101132.47;;;8.09;85.14
51289;BME280;37372;52.294;5.152;2023-03-19T05:38:28;101136.06;;;8.23;85.45
51289;BME280;37372;52.294;5.152;2023-03-19T05:41:03;101138.59;;;8.18;85.36
51289;BME280;37372;52.294;5.152;2023-03-19T05:43:30;101135.44;;;8.14;85.29
51289;BME280;37372;52.294;5.152;2023-03-19T05:46:06;101145.28;;;8.09;85.10
51289;BME280;37372;52.294;5.152;2023-03-19T05:48:33;101150.97;;;8.14;84.88
51289;BME280;37372;52.294;5.152;2023-03-19T05:50:59;101156.84;;;8.18;85.28
51289;BME280;37372;52.294;5.152;2023-03-19T05:53:29;101162.28;;;8.04;85.01
51289;BME280;37372;52.294;5.152;2023-03-19T05:56:01;101161.63;;;7.89;85.28
51289;BME280;37372;52.294;5.152;2023-03-19T05:58:26;101162.09;;;7.99;85.25
51289;BME280;37372;52.294;5.152;2023-03-19T06:01:04;101162.28;;;7.98;85.97
51289;BME280;37372;52.294;5.152;2023-03-19T06:03:35;101167.34;;;8.01;85.54
51289;BME280;37372;52.294;5.152;2023-03-19T06:06:09;101171.78;;;8.08;84.90
51289;BME280;37372;52.294;5.152;2023-03-19T06:08:35;101171.34;;;8.05;85.16
51289;BME280;37372;52.294;5.152;2023-03-19T06:11:00;101173.25;;;8.11;84.94
51289;BME280;37372;52.294;5.152;2023-03-19T06:13:26;101173.69;;;8.21;84.51
51289;BME280;37372;52.294;5.152;2023-03-19T06:16:06;101173.69;;;8.21;85.12
51289;BME280;37372;52.294;5.152;2023-03-19T06:18:42;101173.44;;;8.09;85.08
51289;BME280;37372;52.294;5.152;2023-03-19T06:21:07;101177.69;;;8.12;84.61
51289;BME280;37372;52.294;5.152;2023-03-19T06:23:33;101174.53;;;8.15;84.67
51289;BME280;37372;52.294;5.152;2023-03-19T06:26:09;101181.66;;;8.09;85.07
51289;BME280;37372;52.294;5.152;2023-03-19T06:28:35;101187.53;;;8.00;85.36
51289;BME280;37372;52.294;5.152;2023-03-19T06:31:10;101185.22;;;8.10;84.79
51289;BME280;37372;52.294;5.152;2023-03-19T06:33:36;101190.06;;;8.08;85.21
51289;BME280;37372;52.294;5.152;2023-03-19T06:36:15;101199.97;;;8.15;84.22
51289;BME280;37372;52.294;5.152;2023-03-19T06:38:42;101203.94;;;8.06;85.13
51289;BME280;37372;52.294;5.152;2023-03-19T06:41:20;101215.53;;;8.28;84.13
51289;BME280;37372;52.294;5.152;2023-03-19T06:43:48;101211.13;;;8.27;83.90
51289;BME280;37372;52.294;5.152;2023-03-19T06:46:14;101211.97;;;8.21;83.98
51289;BME280;37372;52.294;5.152;2023-03-19T06:48:39;101214.66;;;8.14;84.17
51289;BME280;37372;52.294;5.152;2023-03-19T06:51:11;101224.78;;;8.21;84.39
51289;BME280;37372;52.294;5.152;2023-03-19T06:53:47;101224.78;;;8.21;84.35
51289;BME280;37372;52.294;5.152;2023-03-19T06:56:12;101238.66;;;8.19;83.43
51289;BME280;37372;52.294;5.152;2023-03-19T06:58:43;101229.75;;;8.04;83.71
51289;BME280;37372;52.294;5.152;2023-03-19T07:01:11;101242.59;;;8.10;83.79
51289;BME280;37372;52.294;5.152;2023-03-19T07:03:37;101243.00;;;8.00;84.47
51289;BME280;37372;52.294;5.152;2023-03-19T07:06:22;101244.69;;;8.01;85.05
51289;BME280;37372;52.294;5.152;2023-03-19T07:08:47;101247.22;;;8.03;85.03
51289;BME280;37372;52.294;5.152;2023-03-19T07:11:19;101256.28;;;8.10;84.49
51289;BME280;37372;52.294;5.152;2023-03-19T07:13:44;101259.22;;;8.08;84.12
51289;BME280;37372;52.294;5.152;2023-03-19T07:16:19;101254.63;;;8.15;84.82
51289;BME280;37372;52.294;5.152;2023-03-19T07:18:44;101259.25;;;8.15;84.75
51289;BME280;37372;52.294;5.152;2023-03-19T07:21:12;101258.19;;;8.16;84.16
51289;BME280;37372;52.294;5.152;2023-03-19T07:23:38;101266.56;;;8.08;84.41
51289;BME280;37372;52.294;5.152;2023-03-19T07:26:13;101278.13;;;8.10;84.02
51289;BME280;37372;52.294;5.152;2023-03-19T07:28:42;101281.06;;;8.08;84.66
51289;BME280;37372;52.294;5.152;2023-03-19T07:31:22;101283.00;;;8.21;84.49
51289;BME280;37372;52.294;5.152;2023-03-19T07:33:51;101277.97;;;8.18;84.43
51289;BME280;37372;52.294;5.152;2023-03-19T07:36:22;101290.34;;;8.14;83.99
51289;BME280;37372;52.294;5.152;2023-03-19T07:38:54;101281.34;;;8.20;83.84
51289;BME280;37372;52.294;5.152;2023-03-19T07:41:22;101290.31;;;8.07;84.76
51289;BME280;37372;52.294;5.152;2023-03-19T07:44:03;101285.31;;;8.18;84.96
51289;BME280;37372;52.294;5.152;2023-03-19T07:46:30;101282.06;;;7.94;85.19
51289;BME280;37372;52.294;5.152;2023-03-19T07:48:55;101297.69;;;8.07;84.85
51289;BME280;37372;52.294;5.152;2023-03-19T07:51:27;101300.22;;;8.15;85.08
51289;BME280;37372;52.294;5.152;2023-03-19T07:54:02;101299.00;;;8.24;84.11
51289;BME280;37372;52.294;5.152;2023-03-19T07:56:31;101294.56;;;8.23;84.25
51289;BME280;37372;52.294;5.152;2023-03-19T07:58:57;101294.22;;;8.33;83.90
51289;BME280;37372;52.294;5.152;2023-03-19T08:01:32;101300.00;;;8.58;83.24
51289;BME280;37372;52.294;5.152;2023-03-19T08:04:01;101294.53;;;8.64;82.80
51289;BME280;37372;52.294;5.152;2023-03-19T08:06:26;101299.31;;;8.49;83.18
51289;BME280;37372;52.294;5.152;2023-03-19T08:08:52;101299.75;;;8.46;83.73
51289;BME280;37372;52.294;5.152;2023-03-19T08:11:19;101306.69;;;8.49;83.74
51289;BME280;37372;52.294;5.152;2023-03-19T08:13:45;101302.50;;;8.59;82.75
51289;BME280;37372;52.294;5.152;2023-03-19T08:16:26;101306.69;;;8.49;83.60
51289;BME280;37372;52.294;5.152;2023-03-19T08:18:52;101308.59;;;8.61;82.26
51289;BME280;37372;52.294;5.152;2023-03-19T08:21:32;101306.06;;;8.47;83.77
51289;BME280;37372;52.294;5.152;2023-03-19T08:23:58;101316.59;;;8.56;83.92
51289;BME280;37372;52.294;5.152;2023-03-19T08:26:40;101320.00;;;8.65;83.55
51289;BME280;37372;52.294;5.152;2023-03-19T08:29:05;101318.50;;;8.62;83.69
51289;BME280;37372;52.294;5.152;2023-03-19T08:31:33;101318.94;;;8.73;83.42
51289;BME280;37372;52.294;5.152;2023-03-19T08:33:58;101324.00;;;8.76;83.83
51289;BME280;37372;52.294;5.152;2023-03-19T08:36:32;101326.13;;;8.80;83.14
51289;BME280;37372;52.294;5.152;2023-03-19T08:39:06;101328.47;;;8.90;82.56
51289;BME280;37372;52.294;5.152;2023-03-19T08:41:36;101332.28;;;9.02;82.42
51289;BME280;37372;52.294;5.152;2023-03-19T08:44:02;101339.66;;;9.02;81.90
51289;BME280;37372;52.294;5.152;2023-03-19T08:46:34;101341.50;;;9.08;80.98
51289;BME280;37372;52.294;5.152;2023-03-19T08:49:00;101352.06;;;9.04;81.40
51289;BME280;37372;52.294;5.152;2023-03-19T08:51:42;101352.47;;;9.08;81.68
51289;BME280;37372;52.294;5.152;2023-03-19T08:54:08;101363.00;;;9.11;81.33
51289;BME280;37372;52.294;5.152;2023-03-19T08:56:43;101361.13;;;9.11;81.70
51289;BME280;37372;52.294;5.152;2023-03-19T08:59:08;101363.25;;;9.16;81.42
51289;BME280;37372;52.294;5.152;2023-03-19T09:01:42;101371.22;;;9.17;81.46
51289;BME280;37372;52.294;5.152;2023-03-19T09:04:08;101372.69;;;9.20;81.85
51289;BME280;37372;52.294;5.152;2023-03-19T09:06:43;101369.13;;;9.19;80.84
51289;BME280;37372;52.294;5.152;2023-03-19T09:09:12;101360.91;;;9.53;80.13
51289;BME280;37372;52.294;5.152;2023-03-19T09:11:45;101359.22;;;9.65;79.76
51289;BME280;37372;52.294;5.152;2023-03-19T09:14:12;101365.53;;;9.59;80.56
51289;BME280;37372;52.294;5.152;2023-03-19T09:16:40;101359.66;;;9.75;79.34
51289;BME280;37372;52.294;5.152;2023-03-19T09:19:09;101358.97;;;9.99;78.40
51289;BME280;37372;52.294;5.152;2023-03-19T09:22:10;101378.16;;;9.99;78.41
51289;BME280;37372;52.294;5.152;2023-03-19T09:24:36;101370.13;;;10.11;78.56
51289;BME280;37372;52.294;5.152;2023-03-19T09:27:01;101373.88;;;10.17;77.93
51289;BME280;37372;52.294;5.152;2023-03-19T09:29:27;101377.69;;;10.29;77.16
51289;BME280;37372;52.294;5.152;2023-03-19T09:31:52;101373.22;;;10.35;77.31
51289;BME280;37372;52.294;5.152;2023-03-19T09:34:21;101384.41;;;10.33;76.89
51289;BME280;37372;52.294;5.152;2023-03-19T09:36:53;101388.63;;;10.29;77.30
51289;BME280;37372;52.294;5.152;2023-03-19T09:39:18;101390.91;;;10.52;76.43
51289;BME280;37372;52.294;5.152;2023-03-19T09:44:43;101398.09;;;10.40;76.54
51289;BME280;37372;52.294;5.152;2023-03-19T09:47:21;101403.63;;;10.33;76.57
51289;BME280;37372;52.294;5.152;2023-03-19T09:49:52;101411.44;;;10.23;78.41
51289;BME280;37372;52.294;5.152;2023-03-19T09:55:35;101418.41;;;10.19;76.72
51289;BME280;37372;52.294;5.152;2023-03-19T09:58:12;101423.22;;;10.17;77.17
51289;BME280;37372;52.294;5.152;2023-03-19T10:00:39;101432.97;;;9.99;78.18
51289;BME280;37372;52.294;5.152;2023-03-19T10:06:16;101430.03;;;9.81;79.23
51289;BME280;37372;52.294;5.152;2023-03-19T10:23:46;101440.31;;;10.19;79.03
51289;BME280;37372;52.294;5.152;2023-03-19T10:26:17;101432.53;;;10.29;79.13
51289;BME280;37372;52.294;5.152;2023-03-19T10:28:44;101430.81;;;10.35;79.08
51289;BME280;37372;52.294;5.152;2023-03-19T10:31:48;101434.00;;;10.38;79.10
51289;BME280;37372;52.294;5.152;2023-03-19T10:37:04;101438.97;;;10.54;77.96
51289;BME280;37372;52.294;5.152;2023-03-19T10:39:41;101444.84;;;10.71;76.99
51289;BME280;37372;52.294;5.152;2023-03-19T10:42:12;101446.75;;;10.71;76.70
51289;BME280;37372;52.294;5.152;2023-03-19T10:47:44;101452.41;;;10.82;76.57
51289;BME280;37372;52.294;5.152;2023-03-19T10:50:31;101457.72;;;10.71;77.32
51289;BME280;37372;52.294;5.152;2023-03-19T10:55:54;101457.22;;;10.87;76.16
51289;BME280;37372;52.294;5.152;2023-03-19T10:58:22;101453.88;;;10.85;76.29
51289;BME280;37372;52.294;5.152;2023-03-19T11:00:55;101454.72;;;10.79;78.13
51289;BME280;37372;52.294;5.152;2023-03-19T11:03:33;101461.81;;;11.00;77.14
51289;BME280;37372;52.294;5.152;2023-03-19T11:08:35;101459.09;;;11.31;74.84
51289;BME280;37372;52.294;5.152;2023-03-19T11:11:04;101454.63;;;11.37;72.96
51289;BME280;37372;52.294;5.152;2023-03-19T11:13:33;101445.09;;;11.39;74.03
51289;BME280;37372;52.294;5.152;2023-03-19T11:16:02;101450.06;;;11.56;72.58
51289;BME280;37372;52.294;5.152;2023-03-19T11:18:39;101456.63;;;11.55;72.99
51289;BME280;37372;52.294;5.152;2023-03-19T11:21:19;101459.38;;;11.55;73.38
51289;BME280;37372;52.294;5.152;2023-03-19T11:23:53;101455.97;;;11.59;73.32
51289;BME280;37372;52.294;5.152;2023-03-19T11:26:22;101456.13;;;11.64;73.26
51289;BME280;37372;52.294;5.152;2023-03-19T11:28:53;101461.53;;;11.78;71.75
51289;BME280;37372;52.294;5.152;2023-03-19T11:39:23;101471.72;;;11.71;70.94
51289;BME280;37372;52.294;5.152;2023-03-19T11:45:25;101468.59;;;11.67;70.27
51289;BME280;37372;52.294;5.152;2023-03-19T11:50:59;101474.28;;;11.72;71.24
51289;BME280;37372;52.294;5.152;2023-03-19T11:56:39;101476.34;;;11.77;70.85
51289;BME280;37372;52.294;5.152;2023-03-19T12:05:36;101475.38;;;11.64;71.02
51289;BME280;37372;52.294;5.152;2023-03-19T12:11:16;101478.47;;;11.43;71.99
51289;BME280;37372;52.294;5.152;2023-03-19T12:28:36;101505.84;;;11.25;72.37
51289;BME280;37372;52.294;5.152;2023-03-19T12:33:45;101505.19;;;11.29;71.88
51289;BME280;37372;52.294;5.152;2023-03-19T12:36:18;101506.00;;;11.36;72.07
51289;BME280;37372;52.294;5.152;2023-03-19T12:38:58;101506.44;;;11.27;72.21
51289;BME280;37372;52.294;5.152;2023-03-19T12:41:27;101507.75;;;11.24;72.20
51289;BME280;37372;52.294;5.152;2023-03-19T12:46:41;101507.38;;;11.07;73.90
51289;BME280;37372;52.294;5.152;2023-03-19T12:49:14;101507.13;;;11.22;72.20
51289;BME280;37372;52.294;5.152;2023-03-19T12:51:53;101507.22;;;11.47;71.70
51289;BME280;37372;52.294;5.152;2023-03-19T12:54:27;101514.47;;;11.35;71.68
51289;BME280;37372;52.294;5.152;2023-03-19T12:57:44;101521.25;;;11.26;72.99
51289;BME280;37372;52.294;5.152;2023-03-19T13:00:24;101517.81;;;11.37;71.85
51289;BME280;37372;52.294;5.152;2023-03-19T13:05:38;101519.75;;;11.30;71.14
51289;BME280;37372;52.294;5.152;2023-03-19T13:08:37;101525.13;;;11.11;72.44
51289;BME280;37372;52.294;5.152;2023-03-19T13:11:14;101523.38;;;11.24;71.67
51289;BME280;37372;52.294;5.152;2023-03-19T13:13:48;101519.94;;;11.35;72.92
51289;BME280;37372;52.294;5.152;2023-03-19T13:21:29;101527.63;;;11.58;71.75
51289;BME280;37372;52.294;5.152;2023-03-19T13:24:16;101521.09;;;11.52;71.52
51289;BME280;37372;52.294;5.152;2023-03-19T13:26:48;101520.81;;;11.67;70.06
51289;BME280;37372;52.294;5.152;2023-03-19T13:29:29;101520.31;;;11.83;70.02
51289;BME280;37372;52.294;5.152;2023-03-19T13:35:25;101526.16;;;12.18;68.58
51289;BME280;37372;52.294;5.152;2023-03-19T13:37:58;101528.97;;;12.37;68.83
51289;BME280;37372;52.294;5.152;2023-03-19T13:41:04;101530.25;;;12.09;69.22
51289;BME280;37372;52.294;5.152;2023-03-19T13:59:38;101517.91;;;12.18;69.17
51289;BME280;37372;52.294;5.152;2023-03-19T14:05:07;101522.81;;;12.60;67.09
51289;BME280;37372;52.294;5.152;2023-03-19T14:07:53;101527.78;;;12.88;65.84
51289;BME280;37372;52.294;5.152;2023-03-19T14:10:32;101536.47;;;12.48;67.47
51289;BME280;37372;52.294;5.152;2023-03-19T14:13:07;101534.81;;;12.65;66.15
51289;BME280;37372;52.294;5.152;2023-03-19T14:15:47;101543.84;;;12.72;66.26
51289;BME280;37372;52.294;5.152;2023-03-19T14:18:28;101550.03;;;12.25;67.54
51289;BME280;37372;52.294;5.152;2023-03-19T14:21:05;101553.56;;;12.07;68.83
51289;BME280;37372;52.294;5.152;2023-03-19T14:23:32;101561.03;;;12.25;67.79
51289;BME280;37372;52.294;5.152;2023-03-19T14:26:22;101560.84;;;12.19;68.31
51289;BME280;37372;52.294;5.152;2023-03-19T14:28:55;101556.69;;;11.79;69.34
51289;BME280;37372;52.294;5.152;2023-03-19T14:31:49;101557.00;;;11.57;70.51
51289;BME280;37372;52.294;5.152;2023-03-19T14:34:33;101552.31;;;11.64;69.79
51289;BME280;37372;52.294;5.152;2023-03-19T14:37:17;101556.06;;;11.77;69.75
51289;BME280;37372;52.294;5.152;2023-03-19T14:40:39;101553.19;;;11.58;70.64
51289;BME280;37372;52.294;5.152;2023-03-19T14:43:17;101557.06;;;11.51;70.77
51289;BME280;37372;52.294;5.152;2023-03-19T14:46:08;101550.38;;;11.40;70.54
51289;BME280;37372;52.294;5.152;2023-03-19T14:55:09;101539.38;;;11.40;71.08
51289;BME280;37372;52.294;5.152;2023-03-19T14:57:38;101541.88;;;11.48;70.89
51289;BME280;37372;52.294;5.152;2023-03-19T15:00:23;101538.66;;;11.51;70.77
51289;BME280;37372;52.294;5.152;2023-03-19T15:02:53;101547.34;;;11.48;71.19
51289;BME280;37372;52.294;5.152;2023-03-19T15:05:32;101549.47;;;11.46;71.20
51289;BME280;37372;52.294;5.152;2023-03-19T15:08:04;101548.91;;;11.31;71.98
51289;BME280;37372;52.294;5.152;2023-03-19T15:10:45;101549.06;;;11.43;71.85
51289;BME280;37372;52.294;5.152;2023-03-19T15:19:11;101560.13;;;11.29;72.10
51289;BME280;37372;52.294;5.152;2023-03-19T15:21:42;101564.78;;;11.29;72.50
51289;BME280;37372;52.294;5.152;2023-03-19T15:24:20;101559.69;;;11.26;73.11
51289;BME280;37372;52.294;5.152;2023-03-19T15:26:48;101570.72;;;11.19;73.47